地図

経路データ

SID SEASON NUMBER BASIN SUBBASIN NAME ISO_TIME NATURE LAT LON WMO_WIND WMO_PRES WMO_AGENCY TRACK_TYPE DIST2LAND LANDFALL IFLAG USA_AGENCY USA_ATCF_ID USA_LAT USA_LON USA_RECORD USA_STATUS USA_WIND USA_PRES USA_SSHS USA_R34_NE USA_R34_SE USA_R34_SW USA_R34_NW USA_R50_NE USA_R50_SE USA_R50_SW USA_R50_NW USA_R64_NE USA_R64_SE USA_R64_SW USA_R64_NW USA_POCI USA_ROCI USA_RMW USA_EYE TOKYO_LAT TOKYO_LON TOKYO_GRADE TOKYO_WIND TOKYO_PRES TOKYO_R50_DIR TOKYO_R50_LONG TOKYO_R50_SHORT TOKYO_R30_DIR TOKYO_R30_LONG TOKYO_R30_SHORT TOKYO_LAND CMA_LAT CMA_LON CMA_CAT CMA_WIND CMA_PRES HKO_LAT HKO_LON HKO_CAT HKO_WIND HKO_PRES NEWDELHI_LAT NEWDELHI_LON NEWDELHI_GRADE NEWDELHI_WIND NEWDELHI_PRES NEWDELHI_CI NEWDELHI_DP NEWDELHI_POCI REUNION_LAT REUNION_LON REUNION_TYPE REUNION_WIND REUNION_PRES REUNION_TNUM REUNION_CI REUNION_RMW REUNION_R34_NE REUNION_R34_SE REUNION_R34_SW REUNION_R34_NW REUNION_R50_NE REUNION_R50_SE REUNION_R50_SW REUNION_R50_NW REUNION_R64_NE REUNION_R64_SE REUNION_R64_SW REUNION_R64_NW BOM_LAT BOM_LON BOM_TYPE BOM_WIND BOM_PRES BOM_TNUM BOM_CI BOM_RMW BOM_R34_NE BOM_R34_SE BOM_R34_SW BOM_R34_NW BOM_R50_NE BOM_R50_SE BOM_R50_SW BOM_R50_NW BOM_R64_NE BOM_R64_SE BOM_R64_SW BOM_R64_NW BOM_ROCI BOM_POCI BOM_EYE BOM_POS_METHOD BOM_PRES_METHOD NADI_LAT NADI_LON NADI_CAT NADI_WIND NADI_PRES WELLINGTON_LAT WELLINGTON_LON WELLINGTON_WIND WELLINGTON_PRES DS824_LAT DS824_LON DS824_STAGE DS824_WIND DS824_PRES TD9636_LAT TD9636_LON TD9636_STAGE TD9636_WIND TD9636_PRES TD9635_LAT TD9635_LON TD9635_WIND TD9635_PRES TD9635_ROCI NEUMANN_LAT NEUMANN_LON NEUMANN_CLASS NEUMANN_WIND NEUMANN_PRES MLC_LAT MLC_LON MLC_CLASS MLC_WIND MLC_PRES USA_GUST BOM_GUST BOM_GUST_PER REUNION_GUST REUNION_GUST_PER USA_SEAHGT USA_SEARAD_NE USA_SEARAD_SE USA_SEARAD_SW USA_SEARAD_NW STORM_SPEED STORM_DIR
1927043N08142 1927 7 WP MM NOT_NAMED 1927-02-12 04:00:00 NR 7.70000 141.600 main 1108 1101 __________O___ -1 7.70000 141.600 2 5 269
1927043N08142 1927 7 WP MM NOT_NAMED 1927-02-12 06:00:00 NR 7.69688 141.424 main 1101 1094 __________P___ -1 7.69688 141.424 2 5 269
1927043N08142 1927 7 WP MM NOT_NAMED 1927-02-12 09:00:00 NR 7.69329 141.163 main 1094 1084 __________P___ -1 7.69329 141.163 2 5 270
1927043N08142 1927 7 WP MM NOT_NAMED 1927-02-12 12:00:00 NR 7.69272 140.911 main 1084 1078 __________P___ -1 7.69272 140.911 2 5 270
1927043N08142 1927 7 WP MM NOT_NAMED 1927-02-12 15:00:00 NR 7.69711 140.675 main 1078 1075 __________P___ -1 7.69711 140.675 2 5 271
1927043N08142 1927 7 WP MM NOT_NAMED 1927-02-12 16:00:00 NR 7.70000 140.600 main 1075 1072 __________O___ -1 7.70000 140.600 2 4 273
1927043N08142 1927 7 WP MM NOT_NAMED 1927-02-12 18:00:00 NR 7.70828 140.458 main 1072 1067 __________P___ -1 7.70828 140.458 2 4 275
1927043N08142 1927 7 WP MM NOT_NAMED 1927-02-12 21:00:00 NR 7.72698 140.257 main 1067 1060 __________P___ -1 7.72698 140.257 2 4 277
1927043N08142 1927 7 WP MM NOT_NAMED 1927-02-13 00:00:00 NR 7.75324 140.064 main 1070 1061 __________P___ -1 7.75324 140.064 2 4 279
1927043N08142 1927 7 WP MM NOT_NAMED 1927-02-13 03:00:00 NR 7.78706 139.868 main 1061 1056 __________P___ -1 7.78706 139.868 2 4 280
1927043N08142 1927 7 WP MM NOT_NAMED 1927-02-13 04:00:00 NR 7.80000 139.800 main 1056 1051 __________O___ -1 7.80000 139.800 2 4 279
1927043N08142 1927 7 WP MM NOT_NAMED 1927-02-13 06:00:00 NR 7.81974 139.656 main 1051 1043 __________P___ -1 7.81974 139.656 2 4 279
1927043N08142 1927 7 WP MM NOT_NAMED 1927-02-13 09:00:00 NR 7.85549 139.433 main 1049 1041 __________P___ -1 7.85549 139.433 2 5 281
1927043N08142 1927 7 WP MM NOT_NAMED 1927-02-13 12:00:00 NR 7.90417 139.205 main 1041 1037 __________P___ -1 7.90417 139.205 2 5 284
1927043N08142 1927 7 WP MM NOT_NAMED 1927-02-13 15:00:00 NR 7.97203 138.976 main 1044 1040 __________P___ -1 7.97203 138.976 2 5 288
1927043N08142 1927 7 WP MM NOT_NAMED 1927-02-13 16:00:00 NR 8.00000 138.900 main 1040 1037 __________O___ -1 8.00000 138.900 2 5 289
1927043N08142 1927 7 WP MM NOT_NAMED 1927-02-13 18:00:00 NR 8.05044 138.750 main 1044 1037 __________P___ -1 8.05044 138.750 2 5 291
1927043N08142 1927 7 WP MM NOT_NAMED 1927-02-13 21:00:00 NR 8.14469 138.525 main 1037 1041 __________P___ -1 8.14469 138.525 2 5 296
1927043N08142 1927 7 WP MM NOT_NAMED 1927-02-14 00:00:00 NR 8.26959 138.300 main 1052 1048 __________P___ -1 8.26959 138.300 2 5 303
1927043N08142 1927 7 WP MM NOT_NAMED 1927-02-14 03:00:00 NR 8.43451 138.075 main 1056 1056 __________P___ -1 8.43451 138.075 2 6 308
1927043N08142 1927 7 WP MM NOT_NAMED 1927-02-14 04:00:00 NR 8.50000 138.000 main 1064 1062 __________O___ -1 8.50000 138.000 2 6 312
1927043N08142 1927 7 WP MM NOT_NAMED 1927-02-14 06:00:00 NR 8.64122 137.842 main 1070 1078 __________P___ -1 8.64122 137.842 2 7 315
1927043N08142 1927 7 WP MM NOT_NAMED 1927-02-14 09:00:00 NR 8.89072 137.605 main 1098 1098 __________P___ -1 8.89072 137.605 2 7 319
1927043N08142 1927 7 WP MM NOT_NAMED 1927-02-14 12:00:00 NR 9.17708 137.376 main 1127 1125 __________P___ -1 9.17708 137.376 2 7 324
1927043N08142 1927 7 WP MM NOT_NAMED 1927-02-14 15:00:00 NR 9.49090 137.165 main 1156 1154 __________P___ -1 9.49090 137.165 2 8 327
1927043N08142 1927 7 WP MM NOT_NAMED 1927-02-14 16:00:00 NR 9.60000 137.100 main 1166 1165 __________O___ -1 9.60000 137.100 2 7 327
1927043N08142 1927 7 WP MM NOT_NAMED 1927-02-14 18:00:00 NR 9.80047 136.962 main 1167 1150 __________P___ -1 9.80047 136.962 2 7 328
1927043N08142 1927 7 WP MM NOT_NAMED 1927-02-14 21:00:00 NR 10.1198 136.773 main 1153 1139 __________P___ -1 10.1198 136.773 2 8 333
1927043N08142 1927 7 WP MM NOT_NAMED 1927-02-15 00:00:00 NR 10.4697 136.621 main 1142 1138 __________P___ -1 10.4697 136.621 2 8 341
1927043N08142 1927 7 WP MM NOT_NAMED 1927-02-15 03:00:00 NR 10.8595 136.520 main 1142 1142 __________P___ -1 10.8595 136.520 2 8 347
1927043N08142 1927 7 WP MM NOT_NAMED 1927-02-15 04:00:00 NR 11.0000 136.500 main 1144 1144 __________O___ -1 11.0000 136.500 2 9 354
1927043N08142 1927 7 WP MM NOT_NAMED 1927-02-15 06:00:00 NR 11.2937 136.462 main 1152 1145 __________P___ -1 11.2937 136.462 2 9 357
1927043N08142 1927 7 WP MM NOT_NAMED 1927-02-15 09:00:00 NR 11.7721 136.454 main 1163 1163 __________P___ -1 11.7721 136.454 2 10 3
1927043N08142 1927 7 WP MM NOT_NAMED 1927-02-15 12:00:00 NR 12.2847 136.512 main 1175 1175 __________P___ -1 12.2847 136.512 2 11 10
1927043N08142 1927 7 WP MM NOT_NAMED 1927-02-15 15:00:00 NR 12.8192 136.640 main 1192 1192 __________P___ -1 12.8192 136.640 2 11 15
1927043N08142 1927 7 WP MM NOT_NAMED 1927-02-15 16:00:00 NR 13.0000 136.700 main 1207 1207 __________O___ -1 13.0000 136.700 2 12 20
1927043N08142 1927 7 WP MM NOT_NAMED 1927-02-15 18:00:00 NR 13.3635 136.845 main 1225 1236 __________P___ -1 13.3635 136.845 2 12 24
1927043N08142 1927 7 WP MM NOT_NAMED 1927-02-15 21:00:00 NR 13.9120 137.116 main 1269 1269 __________P___ -1 13.9120 137.116 2 12 27
1927043N08142 1927 7 WP MM NOT_NAMED 1927-02-16 00:00:00 NR 14.4633 137.435 main 1313 1324 __________P___ -1 14.4633 137.435 2 13 30
1927043N08142 1927 7 WP MM NOT_NAMED 1927-02-16 03:00:00 NR 15.0158 137.782 main 1366 1366 __________P___ -1 15.0158 137.782 2 13 31
1927043N08142 1927 7 WP MM NOT_NAMED 1927-02-16 04:00:00 NR 15.2000 137.900 main 1381 __________O___ -1 15.2000 137.900 2 13 32

デジタル台風データ・検索

IBTrACS Databaseについて

本データベースは、米国NOAAが公開する1842年以降の世界の熱帯低気圧のベストトラックデータアーカイブInternational Best Track Archive for Climate Stewardship (IBTrACS)を、ウェブで閲覧しやすい形式に変換したものです。

最終更新日:2021-10-21